Time;durP1;ratioP1;P1;durP2;ratioP2;P2;SDS_P1;SDS_P2;PMS_P1;PMS_P2;Temp;Humidity;BMP_temperature;BMP_pressure;BME280_temperature;BME280_humidity;BME280_pressure;Samples;Min_cycle;Max_cycle;Signal;HPM_P1;HPM_P2
2022/04/24 00:02:01;;;;;;;;;;;;;;;13.73;73.51;94409.25;4897107;29;20379;-77
2022/04/24 00:04:27;;;;;;;;;;;;;;;13.70;73.57;94417.50;4897278;29;19955;-77
2022/04/24 00:06:54;;;;;;;;;;;;;;;13.68;73.71;94408.91;4897414;29;19928;-77
2022/04/24 00:09:21;;;;;;;;;;;;;;;13.63;73.94;94414.69;4897323;29;19928;-77
2022/04/24 00:11:47;;;;;;;;;;;;;;;13.68;73.71;94409.75;4897196;29;19931;-77
2022/04/24 00:14:17;;;;;;;;;;;;;;;13.71;73.48;94413.88;4897352;29;19927;-77
2022/04/24 00:16:44;;;;;;;;;;;;;;;13.71;73.74;94411.22;4896905;29;20379;-77
2022/04/24 00:19:11;;;;;;;;;;;;;;;13.62;73.88;94410.41;4897249;29;19927;-77
2022/04/24 00:21:38;;;;;;;;;;;;;;;13.67;73.90;94417.81;4897435;29;19949;-77
2022/04/24 00:24:05;;;;;;;;;;;;;;;13.65;73.77;94417.97;4896950;29;20404;-77
2022/04/24 00:26:31;;;;;;;;;;;;;;;13.63;74.39;94412.03;4896902;29;19927;-77
2022/04/24 00:28:58;;;;;;;;;;;;;;;13.60;74.41;94426.38;4897103;29;20441;-77
2022/04/24 00:31:26;;;;;;;;;;;;;;;13.56;74.31;94425.00;4896858;29;20291;-77
2022/04/24 00:33:52;;;;;;;;;;;;;;;13.46;74.27;94419.06;4897023;29;19928;-76
2022/04/24 00:36:19;;;;;;;;;;;;;;;13.45;74.17;94422.69;4896895;29;19933;-76
2022/04/24 00:38:46;;;;;;;;;;;;;;;13.33;74.74;94418.69;4896776;29;20403;-77
2022/04/24 00:41:12;;;;;;;;;;;;;;;13.23;75.29;94421.44;4899994;29;19951;-76
2022/04/24 00:43:39;;;;;;;;;;;;;;;13.20;75.90;94413.00;4900075;29;19931;-77
2022/04/24 00:46:13;;;;;;;;;;;;;;;13.07;76.71;94421.31;4900683;29;19931;-76
2022/04/24 00:48:41;;;;;;;;;;;;;;;13.08;76.55;94422.16;4900242;29;19932;-77
2022/04/24 00:51:09;;;;;;;;;;;;;;;13.05;77.17;94417.19;4900327;29;20036;-76
2022/04/24 00:53:35;;;;;;;;;;;;;;;12.97;77.13;94418.78;4900109;29;19927;-76
2022/04/24 00:56:02;;;;;;;;;;;;;;;13.00;77.13;94415.00;4900338;29;20320;-77
2022/04/24 00:58:29;;;;;;;;;;;;;;;12.97;77.52;94417.97;4899959;29;19937;-77
2022/04/24 01:00:56;;;;;;;;;;;;;;;13.02;77.13;94424.44;4900118;29;19927;-77
2022/04/24 01:03:23;;;;;;;;;;;;;;;12.94;77.82;94431.44;4899776;29;19932;-77
2022/04/24 01:05:51;;;;;;;;;;;;;;;12.86;77.24;94419.06;4900012;29;19927;-76
2022/04/24 01:08:17;;;;;;;;;;;;;;;12.91;77.01;94422.06;4899690;29;19927;-76
2022/04/24 01:10:44;;;;;;;;;;;;;;;12.91;77.14;94424.69;4899874;29;19943;-77
2022/04/24 01:13:11;;;;;;;;;;;;;;;12.90;77.26;94425.66;4899774;29;20379;-77
2022/04/24 01:15:37;;;;;;;;;;;;;;;12.80;77.56;94429.41;4899977;29;19927;-77
2022/04/24 01:18:04;;;;;;;;;;;;;;;12.77;77.28;94427.91;4899761;29;19934;-76
2022/04/24 01:20:34;;;;;;;;;;;;;;;12.69;78.23;94430.47;4899530;29;19935;-76
2022/04/24 01:23:00;;;;;;;;;;;;;;;12.67;78.25;94429.78;4899594;29;20344;-76
2022/04/24 01:25:27;;;;;;;;;;;;;;;12.60;78.24;94429.59;4899530;29;19927;-76
2022/04/24 01:27:54;;;;;;;;;;;;;;;12.60;79.47;94439.28;4899651;29;19927;-76
2022/04/24 01:30:20;;;;;;;;;;;;;;;12.47;79.83;94436.22;4899576;29;19928;-76
2022/04/24 01:32:47;;;;;;;;;;;;;;;12.48;79.86;94443.97;4899169;29;20575;-77
2022/04/24 01:35:15;;;;;;;;;;;;;;;12.26;81.21;94453.16;4899476;29;19935;-77
2022/04/24 01:37:44;;;;;;;;;;;;;;;12.17;81.51;94459.34;4899350;29;19927;-76
2022/04/24 01:40:11;;;;;;;;;;;;;;;12.11;81.65;94457.28;4899361;29;19928;-76
2022/04/24 01:42:37;;;;;;;;;;;;;;;11.87;83.94;94460.50;4899425;29;19927;-76
2022/04/24 01:45:05;;;;;;;;;;;;;;;12.00;83.11;94457.50;4899192;29;19928;-76
2022/04/24 01:47:31;;;;;;;;;;;;;;;12.08;83.43;94460.22;4899245;29;19974;-76
2022/04/24 01:49:58;;;;;;;;;;;;;;;12.22;83.01;94466.75;4898815;29;20431;-77
2022/04/24 01:52:25;;;;;;;;;;;;;;;12.29;82.89;94463.38;4899078;29;19936;-77
2022/04/24 01:54:53;;;;;;;;;;;;;;;12.34;82.21;94465.53;4898847;29;19927;-77
2022/04/24 01:57:22;;;;;;;;;;;;;;;12.45;81.70;94467.97;4899224;29;19938;-77
2022/04/24 01:59:49;;;;;;;;;;;;;;;12.54;80.56;94459.16;4898958;29;20342;-76
2022/04/24 02:02:16;;;;;;;;;;;;;;;12.61;80.44;94460.19;4899161;29;19950;-77
2022/04/24 02:04:42;;;;;;;;;;;;;;;12.65;79.50;94461.53;4881333;29;19928;-77
2022/04/24 02:07:09;;;;;;;;;;;;;;;12.70;79.49;94466.31;4898725;29;19927;-76
2022/04/24 02:09:36;;;;;;;;;;;;;;;12.73;78.66;94460.78;4898655;29;19962;-76
2022/04/24 02:12:05;;;;;;;;;;;;;;;12.71;79.49;94462.72;4898865;29;19927;-77
2022/04/24 02:14:31;;;;;;;;;;;;;;;12.68;79.60;94457.75;4896715;29;19933;-77
2022/04/24 02:16:58;;;;;;;;;;;;;;;12.72;79.08;94464.38;4898605;29;19928;-77
2022/04/24 02:19:24;;;;;;;;;;;;;;;12.78;79.06;94465.59;4898584;29;19928;-77
2022/04/24 02:21:51;;;;;;;;;;;;;;;12.79;78.55;94467.25;4898707;29;20279;-77
2022/04/24 02:24:17;;;;;;;;;;;;;;;12.83;79.18;94471.22;4898965;29;19935;-76
2022/04/24 02:26:44;;;;;;;;;;;;;;;12.81;78.64;94467.91;4898417;29;19928;-76
2022/04/24 02:29:12;;;;;;;;;;;;;;;12.81;78.39;94473.16;4898681;29;19927;-77
2022/04/24 02:31:38;;;;;;;;;;;;;;;12.76;78.17;94463.09;4898369;29;19944;-77
2022/04/24 02:34:05;;;;;;;;;;;;;;;12.71;78.88;94460.91;4898289;29;19935;-76
2022/04/24 02:36:32;;;;;;;;;;;;;;;12.74;78.61;94458.97;4898472;29;19928;-76
2022/04/24 02:38:58;;;;;;;;;;;;;;;12.68;78.53;94463.03;4898297;29;19927;-76
2022/04/24 02:41:26;;;;;;;;;;;;;;;12.59;78.97;94464.78;4898437;29;19934;-77
2022/04/24 02:43:52;;;;;;;;;;;;;;;12.59;78.38;94463.94;4898080;29;19928;-77
2022/04/24 02:46:20;;;;;;;;;;;;;;;12.57;78.92;94458.00;4849486;29;19935;-77
2022/04/24 02:48:47;;;;;;;;;;;;;;;12.54;79.11;94467.03;4880386;29;20541;-77
2022/04/24 02:51:13;;;;;;;;;;;;;;;12.51;79.73;94461.25;4897965;29;20375;-77
2022/04/24 02:53:41;;;;;;;;;;;;;;;12.49;79.60;94458.78;4898076;29;19927;-76
2022/04/24 02:56:08;;;;;;;;;;;;;;;12.47;79.14;94459.91;4898030;29;20383;-76
2022/04/24 02:58:34;;;;;;;;;;;;;;;12.46;79.44;94466.16;4880195;29;19950;-76
2022/04/24 03:01:01;;;;;;;;;;;;;;;12.41;78.91;94462.16;4898105;29;19935;-77
2022/04/24 03:03:29;;;;;;;;;;;;;;;12.34;79.80;94473.44;4897286;29;19935;-77
2022/04/24 03:05:55;;;;;;;;;;;;;;;12.39;79.67;94474.63;4898043;29;19944;-76
2022/04/24 03:08:22;;;;;;;;;;;;;;;12.43;79.66;94479.59;4897761;29;19928;-77
2022/04/24 03:10:49;;;;;;;;;;;;;;;12.39;79.37;94486.97;4895757;29;19927;-77
2022/04/24 03:13:16;;;;;;;;;;;;;;;12.44;79.31;94483.91;4897545;29;19935;-77
2022/04/24 03:15:42;;;;;;;;;;;;;;;12.43;79.19;94488.31;4879915;29;19927;-77
2022/04/24 03:18:09;;;;;;;;;;;;;;;12.47;79.38;94487.06;4897689;29;20391;-77
2022/04/24 03:20:37;;;;;;;;;;;;;;;12.48;79.40;94490.53;4897648;29;19927;-77
2022/04/24 03:23:03;;;;;;;;;;;;;;;12.44;79.04;94491.81;4897793;29;19927;-77
2022/04/24 03:25:30;;;;;;;;;;;;;;;12.45;78.30;94490.81;4897600;29;19931;-77
2022/04/24 03:27:56;;;;;;;;;;;;;;;12.33;78.35;94496.28;4897411;29;19928;-76
2022/04/24 03:30:23;;;;;;;;;;;;;;;12.19;79.86;94499.47;4897447;29;19939;-77
2022/04/24 03:32:50;;;;;;;;;;;;;;;12.16;80.20;94515.53;4897508;29;19927;-76
2022/04/24 03:35:16;;;;;;;;;;;;;;;12.11;80.59;94507.25;4897421;29;19928;-76
2022/04/24 03:37:44;;;;;;;;;;;;;;;12.10;80.33;94510.84;4880992;29;20302;-77
2022/04/24 03:40:11;;;;;;;;;;;;;;;12.06;81.12;94520.03;4898322;29;19931;-76
2022/04/24 03:42:38;;;;;;;;;;;;;;;12.12;80.85;94513.34;4898466;29;19935;-77
2022/04/24 03:45:06;;;;;;;;;;;;;;;12.20;80.89;94516.91;4880768;29;19928;-76
2022/04/24 03:47:33;;;;;;;;;;;;;;;12.24;80.26;94510.34;4898382;29;19927;-77
2022/04/24 03:50:00;;;;;;;;;;;;;;;12.32;80.37;94520.13;4898736;29;19934;-76
2022/04/24 03:52:26;;;;;;;;;;;;;;;12.46;79.60;94521.41;4898387;29;19927;-76
2022/04/24 03:54:54;;;;;;;;;;;;;;;12.74;79.00;94528.25;4898075;29;20306;-78
2022/04/24 03:57:23;;;;;;;;;;;;;;;12.93;76.60;94521.97;4898359;29;19931;-77
2022/04/24 03:59:50;;;;;;;;;;;;;;;13.12;76.20;94523.59;4897828;29;20017;-77
2022/04/24 04:02:17;;;;;;;;;;;;;;;13.35;75.10;94523.94;4898392;29;19934;-77
2022/04/24 04:04:43;;;;;;;;;;;;;;;13.44;74.19;94518.53;4898725;29;19984;-77
2022/04/24 04:07:10;;;;;;;;;;;;;;;13.50;73.55;94517.91;4897962;29;19927;-76
2022/04/24 04:09:37;;;;;;;;;;;;;;;13.71;72.70;94520.16;4898271;29;19935;-77
2022/04/24 04:12:06;;;;;;;;;;;;;;;14.00;71.94;94514.50;4898324;29;19927;-77
2022/04/24 04:14:32;;;;;;;;;;;;;;;14.47;70.18;94522.75;4898383;29;19979;-77
2022/04/24 04:16:59;;;;;;;;;;;;;;;14.94;68.83;94518.63;4902124;29;20286;-77
2022/04/24 04:19:26;;;;;;;;;;;;;;;15.59;66.54;94519.38;4901809;29;19950;-78
2022/04/24 04:21:52;;;;;;;;;;;;;;;16.28;64.45;94516.97;4902164;29;19932;-78
2022/04/24 04:24:19;;;;;;;;;;;;;;;17.06;61.32;94513.31;4901477;29;19927;-78
2022/04/24 04:26:45;;;;;;;;;;;;;;;17.77;59.27;94518.13;4880764;29;19934;-78
2022/04/24 04:29:13;;;;;;;;;;;;;;;18.56;56.61;94519.09;4883268;29;19928;-79
2022/04/24 04:31:40;;;;;;;;;;;;;;;18.83;54.56;94522.91;4883166;29;19931;-78
2022/04/24 04:34:06;;;;;;;;;;;;;;;19.17;54.45;94524.03;4883259;29;19928;-78
2022/04/24 04:36:33;;;;;;;;;;;;;;;19.68;52.77;94524.66;4865635;29;19935;-78
2022/04/24 04:38:59;;;;;;;;;;;;;;;20.03;51.55;94527.31;4882712;29;19928;-80
2022/04/24 04:41:26;;;;;;;;;;;;;;;20.78;54.14;94522.91;4883362;29;20014;-82
2022/04/24 04:43:53;;;;;;;;;;;;;;;21.09;49.14;94522.34;4883387;29;19951;-80
2022/04/24 04:46:21;;;;;;;;;;;;;;;21.07;48.89;94517.22;4882564;29;19928;-83
2022/04/24 04:48:47;;;;;;;;;;;;;;;21.06;48.59;94520.09;4883108;29;19935;-80
2022/04/24 04:51:14;;;;;;;;;;;;;;;20.87;49.22;94522.53;4882757;29;19938;-79
2022/04/24 04:53:40;;;;;;;;;;;;;;;20.46;49.97;94533.28;4880759;29;19927;-80
2022/04/24 04:56:07;;;;;;;;;;;;;;;19.97;50.80;94533.44;4882473;29;19944;-80
2022/04/24 04:58:33;;;;;;;;;;;;;;;19.33;52.23;94539.69;4882408;29;19951;-79
2022/04/24 05:01:01;;;;;;;;;;;;;;;19.01;53.95;94542.88;4882552;29;19934;-79
2022/04/24 05:03:30;;;;;;;;;;;;;;;18.84;54.63;94548.47;4882586;29;19928;-79
2022/04/24 05:05:57;;;;;;;;;;;;;;;18.82;54.66;94549.69;4882526;29;20296;-79
2022/04/24 05:08:23;;;;;;;;;;;;;;;18.91;55.37;94545.88;4882646;29;19935;-79
2022/04/24 05:10:50;;;;;;;;;;;;;;;18.65;55.24;94553.56;4882995;29;20307;-79
2022/04/24 05:13:17;;;;;;;;;;;;;;;19.11;54.79;94552.22;4882707;29;19927;-80
2022/04/24 05:15:43;;;;;;;;;;;;;;;19.39;54.19;94548.78;4882637;29;19928;-79
2022/04/24 05:18:10;;;;;;;;;;;;;;;19.52;53.82;94554.19;4882290;29;19932;-80
2022/04/24 05:20:38;;;;;;;;;;;;;;;19.86;53.45;94548.09;4882632;29;19927;-80
2022/04/24 05:23:06;;;;;;;;;;;;;;;20.06;53.08;94556.22;4881968;29;19976;-81
2022/04/24 05:25:32;;;;;;;;;;;;;;;20.51;51.97;94562.00;4885430;29;20348;-78
2022/04/24 05:28:00;;;;;;;;;;;;;;;20.86;50.22;94555.59;4852404;29;19928;-79
2022/04/24 05:30:27;;;;;;;;;;;;;;;21.02;50.33;94552.53;4901295;29;19927;-80
2022/04/24 05:32:54;;;;;;;;;;;;;;;21.42;49.23;94557.97;4900950;29;19928;-80
2022/04/24 05:35:20;;;;;;;;;;;;;;;21.56;48.81;94553.44;4901006;29;19927;-80
2022/04/24 05:37:48;;;;;;;;;;;;;;;21.64;55.12;94554.03;4900639;29;19928;-79
2022/04/24 05:40:15;;;;;;;;;;;;;;;21.67;49.04;94549.31;4898879;29;19928;-79
2022/04/24 05:42:45;;;;;;;;;;;;;;;21.68;48.00;94546.44;4900814;29;19928;-80
2022/04/24 05:45:14;;;;;;;;;;;;;;;21.34;48.23;94542.13;4900268;29;19942;-79
2022/04/24 05:47:41;;;;;;;;;;;;;;;21.40;48.60;94546.66;4899585;29;19979;-78
2022/04/24 05:50:08;;;;;;;;;;;;;;;21.65;48.75;94544.19;4900071;29;19927;-78
2022/04/24 05:52:34;;;;;;;;;;;;;;;21.92;48.30;94550.31;4900250;29;19932;-78
2022/04/24 05:55:02;;;;;;;;;;;;;;;22.21;47.34;94547.19;4900245;29;19935;-79
2022/04/24 05:57:29;;;;;;;;;;;;;;;22.63;46.58;94552.22;4900004;29;19927;-79
2022/04/24 05:59:56;;;;;;;;;;;;;;;22.91;45.26;94542.03;4899938;29;19934;-79
2022/04/24 06:02:22;;;;;;;;;;;;;;;23.25;44.50;94538.09;4900129;29;20384;-81
2022/04/24 06:04:49;;;;;;;;;;;;;;;23.42;43.45;94536.53;4900056;29;19959;-82
2022/04/24 06:07:15;;;;;;;;;;;;;;;23.31;43.52;94531.88;4900297;29;19935;-81
2022/04/24 06:09:42;;;;;;;;;;;;;;;23.30;43.84;94529.41;4900250;29;19928;-81
2022/04/24 06:12:11;;;;;;;;;;;;;;;23.52;43.55;94530.69;4900123;29;19927;-79
2022/04/24 06:14:40;;;;;;;;;;;;;;;23.08;44.72;94521.72;4899532;29;19943;-79
2022/04/24 06:17:07;;;;;;;;;;;;;;;23.34;44.43;94528.75;4899549;29;19934;-79
2022/04/24 06:19:33;;;;;;;;;;;;;;;23.26;44.41;94518.31;4899711;29;19928;-79
2022/04/24 06:22:00;;;;;;;;;;;;;;;23.12;44.97;94516.75;4899835;29;19928;-79
2022/04/24 06:24:27;;;;;;;;;;;;;;;22.82;45.99;94517.34;4900117;29;19938;-79
2022/04/24 06:26:53;;;;;;;;;;;;;;;23.61;67.05;94516.00;4899765;29;19939;-81
2022/04/24 06:29:21;;;;;;;;;;;;;;;23.90;49.75;94522.53;4899539;29;19928;-80
2022/04/24 06:31:48;;;;;;;;;;;;;;;24.48;49.00;94521.34;4899301;29;19928;-81
2022/04/24 06:34:14;;;;;;;;;;;;;;;24.80;45.53;94525.47;4899590;29;19927;-81
2022/04/24 06:36:41;;;;;;;;;;;;;;;25.13;43.30;94522.34;4898798;29;19928;-80
2022/04/24 06:39:07;;;;;;;;;;;;;;;25.68;42.38;94516.78;4899561;29;19934;-81
2022/04/24 06:41:34;;;;;;;;;;;;;;;25.76;41.73;94515.63;4882034;29;19934;-81
2022/04/24 06:44:01;;;;;;;;;;;;;;;26.07;40.62;94512.59;4899413;29;20295;-81
2022/04/24 06:46:29;;;;;;;;;;;;;;;26.39;39.49;94513.06;4899776;29;19935;-81
2022/04/24 06:48:55;;;;;;;;;;;;;;;26.57;39.24;94516.63;4899239;29;19927;-80
2022/04/24 06:51:22;;;;;;;;;;;;;;;26.61;41.01;94509.72;4899405;29;19927;-81
2022/04/24 06:53:48;;;;;;;;;;;;;;;26.39;38.65;94509.53;4898860;29;19934;-81
2022/04/24 06:56:15;;;;;;;;;;;;;;;26.05;40.21;94509.31;4899104;29;19927;-81
2022/04/24 06:58:42;;;;;;;;;;;;;;;25.63;39.00;94511.25;4899675;29;20283;-80
2022/04/24 07:01:08;;;;;;;;;;;;;;;25.57;43.27;94502.25;4899057;29;19927;-81
2022/04/24 07:03:37;;;;;;;;;;;;;;;25.15;40.16;94500.63;4899523;29;19928;-80
2022/04/24 07:06:04;;;;;;;;;;;;;;;24.37;41.33;94496.91;4899228;29;19947;-80
2022/04/24 07:08:30;;;;;;;;;;;;;;;24.18;43.66;94492.56;4898867;29;20379;-80
2022/04/24 07:10:57;;;;;;;;;;;;;;;24.07;43.57;94496.00;4899515;29;19927;-80
2022/04/24 07:13:24;;;;;;;;;;;;;;;24.42;46.68;94493.56;4899116;29;19927;-81
2022/04/24 07:15:51;;;;;;;;;;;;;;;24.23;42.66;94490.03;4899420;29;19928;-81
2022/04/24 07:18:18;;;;;;;;;;;;;;;24.68;49.70;94487.84;4898803;29;19928;-81
2022/04/24 07:20:46;;;;;;;;;;;;;;;24.87;47.71;94490.50;4898992;29;19927;-81
2022/04/24 07:23:13;;;;;;;;;;;;;;;24.73;41.74;94486.34;4898853;29;19927;-81
2022/04/24 07:25:41;;;;;;;;;;;;;;;24.71;47.59;94486.56;4899220;29;19927;-81
2022/04/24 07:28:07;;;;;;;;;;;;;;;24.54;42.08;94480.19;4898692;29;20407;-80
2022/04/24 07:30:34;;;;;;;;;;;;;;;24.01;49.44;94480.81;4899146;29;19932;-81
2022/04/24 07:33:01;;;;;;;;;;;;;;;24.26;50.20;94486.06;4899497;29;19927;-80
2022/04/24 07:35:28;;;;;;;;;;;;;;;24.56;54.58;94480.78;4899164;29;19927;-81
2022/04/24 07:37:57;;;;;;;;;;;;;;;24.90;44.31;94469.38;4898428;29;19943;-81
2022/04/24 07:40:24;;;;;;;;;;;;;;;24.95;49.58;94474.06;4898635;29;19938;-82
2022/04/24 07:42:51;;;;;;;;;;;;;;;24.80;44.73;94474.47;4899174;29;19928;-80
2022/04/24 07:45:18;;;;;;;;;;;;;;;25.18;43.91;94476.84;4898957;29;19934;-83
2022/04/24 07:47:46;;;;;;;;;;;;;;;25.07;43.38;94479.50;4898180;29;19934;-83
2022/04/24 07:50:13;;;;;;;;;;;;;;;25.17;44.02;94469.84;4901692;29;19934;-82
2022/04/24 07:52:40;;;;;;;;;;;;;;;25.29;41.71;94473.34;4902605;29;19927;-82
2022/04/24 07:55:10;;;;;;;;;;;;;;;24.84;42.06;94469.47;4901689;29;19927;-81
2022/04/24 07:57:37;;;;;;;;;;;;;;;24.52;42.51;94458.94;4902545;29;19927;-81
2022/04/24 08:00:04;;;;;;;;;;;;;;;24.50;42.96;94458.38;4902006;29;19931;-81
2022/04/24 08:02:31;;;;;;;;;;;;;;;24.25;45.47;94452.25;4902194;29;19935;-81
2022/04/24 08:04:57;;;;;;;;;;;;;;;24.27;46.15;94452.84;4902144;29;20005;-81
2022/04/24 08:07:24;;;;;;;;;;;;;;;24.31;42.58;94452.22;4902501;29;19954;-81
2022/04/24 08:09:50;;;;;;;;;;;;;;;24.43;43.23;94446.09;4902665;29;19928;-81
2022/04/24 08:12:18;;;;;;;;;;;;;;;24.39;43.45;94440.38;4902330;29;19934;-81
2022/04/24 08:14:45;;;;;;;;;;;;;;;24.35;42.76;94440.00;4902245;29;19935;-80
2022/04/24 08:17:11;;;;;;;;;;;;;;;24.67;42.85;94435.22;4902682;29;19927;-80
2022/04/24 08:19:38;;;;;;;;;;;;;;;24.92;41.39;94428.91;4902158;29;19927;-81
2022/04/24 08:22:05;;;;;;;;;;;;;;;25.11;41.32;94421.59;4902665;29;19951;-81
2022/04/24 08:24:32;;;;;;;;;;;;;;;25.37;40.15;94417.66;4902168;29;20339;-81
2022/04/24 08:26:58;;;;;;;;;;;;;;;25.15;40.41;94428.94;4902260;29;19933;-81
2022/04/24 08:29:26;;;;;;;;;;;;;;;25.28;40.89;94420.69;4901976;29;19928;-81
2022/04/24 08:31:53;;;;;;;;;;;;;;;24.93;40.18;94409.88;4901971;29;20091;-80
2022/04/24 08:34:19;;;;;;;;;;;;;;;24.84;42.27;94421.16;4901727;29;20299;-81
2022/04/24 08:36:46;;;;;;;;;;;;;;;24.69;41.35;94421.59;4901577;29;19928;-81
2022/04/24 08:39:18;;;;;;;;;;;;;;;24.52;42.93;94413.34;4901751;29;19928;-80
2022/04/24 08:41:45;;;;;;;;;;;;;;;24.26;41.71;94414.47;4901541;29;19975;-80
2022/04/24 08:44:11;;;;;;;;;;;;;;;24.44;46.10;94412.84;4901231;29;20272;-79
2022/04/24 08:46:39;;;;;;;;;;;;;;;24.59;43.24;94413.28;4901435;29;19950;-79
2022/04/24 08:49:07;;;;;;;;;;;;;;;24.46;44.49;94414.25;4901364;29;19928;-80
2022/04/24 08:51:33;;;;;;;;;;;;;;;24.53;44.40;94404.25;4901517;29;19928;-80
2022/04/24 08:54:01;;;;;;;;;;;;;;;24.70;43.72;94407.13;4901678;29;19928;-80
2022/04/24 08:56:28;;;;;;;;;;;;;;;24.88;44.30;94387.47;4901574;29;19983;-80
2022/04/24 08:58:55;;;;;;;;;;;;;;;24.76;43.26;94394.66;4901350;29;20404;-80
2022/04/24 09:01:21;;;;;;;;;;;;;;;24.59;42.53;94397.19;4898119;29;19934;-80
2022/04/24 09:03:49;;;;;;;;;;;;;;;24.52;46.04;94391.06;4900839;29;19927;-84
2022/04/24 09:06:22;;;;;;;;;;;;;;;24.20;44.07;94390.44;4901054;29;20387;-85
2022/04/24 09:08:49;;;;;;;;;;;;;;;24.36;44.48;94390.69;4901430;29;19927;-85
2022/04/24 09:11:17;;;;;;;;;;;;;;;24.21;44.08;94394.75;4900972;29;19927;-84
2022/04/24 09:16:34;;;;;;;;;;;;;;;24.46;42.95;94387.44;4901072;29;20776;-85
2022/04/24 09:19:02;;;;;;;;;;;;;;;24.54;43.67;94387.09;4900723;29;19983;-86
2022/04/24 09:21:28;;;;;;;;;;;;;;;24.64;41.35;94379.34;4901364;29;20284;-86
2022/04/24 09:23:58;;;;;;;;;;;;;;;24.74;42.77;94372.59;4900655;29;19928;-86
2022/04/24 09:26:25;;;;;;;;;;;;;;;24.84;44.70;94373.66;4900798;29;19935;-87
2022/04/24 09:28:52;;;;;;;;;;;;;;;24.81;43.92;94365.25;4900976;29;20007;-87
2022/04/24 09:31:18;;;;;;;;;;;;;;;24.70;44.79;94364.19;4902518;29;19927;-87
2022/04/24 09:33:45;;;;;;;;;;;;;;;24.76;44.57;94349.03;4900909;29;19935;-90
2022/04/24 09:36:13;;;;;;;;;;;;;;;24.91;45.10;94354.78;4900923;29;20300;-90
2022/04/24 09:38:41;;;;;;;;;;;;;;;24.98;43.84;94350.13;4901391;29;19928;-87
2022/04/24 09:41:14;;;;;;;;;;;;;;;24.97;43.90;94353.84;4900593;29;19927;-89
2022/04/24 09:43:42;;;;;;;;;;;;;;;24.57;44.24;94351.78;4901339;29;19928;-89
2022/04/24 09:46:08;;;;;;;;;;;;;;;24.54;44.44;94344.19;4900917;29;19951;-89
2022/04/24 09:48:35;;;;;;;;;;;;;;;24.44;45.33;94351.97;4900602;29;19928;-89
2022/04/24 09:51:02;;;;;;;;;;;;;;;24.23;45.08;94344.41;4901413;29;19935;-91
2022/04/24 09:53:32;;;;;;;;;;;;;;;24.52;46.20;94332.88;4900546;29;19928;-89
2022/04/24 09:56:00;;;;;;;;;;;;;;;24.64;44.90;94323.00;4900618;29;20405;-85
2022/04/24 09:58:26;;;;;;;;;;;;;;;24.73;45.01;94328.03;4900481;29;19928;-84
2022/04/24 10:00:53;;;;;;;;;;;;;;;24.92;46.49;94321.53;4900922;29;19934;-85
2022/04/24 10:03:20;;;;;;;;;;;;;;;24.94;44.50;94320.22;4900454;29;19927;-79
2022/04/24 10:05:48;;;;;;;;;;;;;;;25.00;42.80;94310.47;4900219;29;19934;-81
2022/04/24 10:08:15;;;;;;;;;;;;;;;24.95;43.21;94313.00;4900094;29;19931;-84
2022/04/24 10:10:43;;;;;;;;;;;;;;;24.74;44.18;94302.81;4900105;29;20366;-85
2022/04/24 10:13:12;;;;;;;;;;;;;;;24.84;44.26;94303.06;4899650;29;19928;-79
2022/04/24 10:15:44;;;;;;;;;;;;;;;24.96;44.85;94298.53;4900099;29;19949;-79
2022/04/24 10:18:20;;;;;;;;;;;;;;;24.88;44.11;94294.31;4899567;29;19928;-79
2022/04/24 10:21:07;;;;;;;;;;;;;;;24.66;44.57;94294.06;4900303;29;19927;-82
2022/04/24 10:23:35;;;;;;;;;;;;;;;24.78;43.01;94285.19;4859140;29;19928;-86
2022/04/24 10:26:03;;;;;;;;;;;;;;;24.76;43.13;94279.25;4843033;29;19935;-81
2022/04/24 10:28:37;;;;;;;;;;;;;;;24.76;43.83;94279.25;4841910;29;19973;-86
2022/04/24 10:31:05;;;;;;;;;;;;;;;24.84;43.28;94278.91;4856687;29;20428;-85
2022/04/24 10:33:33;;;;;;;;;;;;;;;24.89;42.80;94276.34;4841926;29;19944;-84
2022/04/24 10:36:00;;;;;;;;;;;;;;;24.88;42.83;94277.41;4852421;29;19928;-84
2022/04/24 10:38:27;;;;;;;;;;;;;;;24.87;43.46;94279.28;4860361;29;20436;-85
2022/04/24 10:41:01;;;;;;;;;;;;;;;24.98;42.84;94266.88;4860663;29;19928;-85
2022/04/24 10:43:37;;;;;;;;;;;;;;;25.09;43.59;94268.78;4844624;29;20320;-83
2022/04/24 10:46:04;;;;;;;;;;;;;;;25.09;42.92;94265.28;4860202;29;20291;-83
2022/04/24 10:48:34;;;;;;;;;;;;;;;25.12;41.90;94259.44;4863519;29;19928;-85
2022/04/24 10:51:01;;;;;;;;;;;;;;;25.02;42.42;94257.34;4860823;29;19972;-82
2022/04/24 10:53:27;;;;;;;;;;;;;;;24.72;43.09;94260.13;4860042;29;19935;-84
2022/04/24 10:56:04;;;;;;;;;;;;;;;24.61;45.51;94253.69;4859953;29;20385;-83
2022/04/24 10:58:30;;;;;;;;;;;;;;;24.56;43.21;94252.75;4859884;29;19941;-81
2022/04/24 11:01:08;;;;;;;;;;;;;;;24.62;44.82;94249.16;4885706;29;19928;-84
2022/04/24 11:03:39;;;;;;;;;;;;;;;24.82;46.46;94246.91;4898842;29;19938;-85
2022/04/24 11:06:06;;;;;;;;;;;;;;;24.96;43.36;94247.53;4899210;29;19978;-85
2022/04/24 11:08:41;;;;;;;;;;;;;;;25.01;41.23;94251.16;4898881;29;20339;-85
2022/04/24 11:11:09;;;;;;;;;;;;;;;24.66;40.87;94253.00;4899369;29;19927;-85
2022/04/24 11:13:37;;;;;;;;;;;;;;;24.83;41.90;94251.25;4897399;29;19928;-85
2022/04/24 11:16:06;;;;;;;;;;;;;;;24.99;40.68;94242.53;4897594;29;19991;-84
2022/04/24 11:18:33;;;;;;;;;;;;;;;25.12;41.46;94233.41;4897451;29;20280;-84
2022/04/24 11:21:01;;;;;;;;;;;;;;;25.25;41.41;94230.47;4897377;29;20367;-85
2022/04/24 11:23:29;;;;;;;;;;;;;;;25.26;40.43;94231.28;4896753;29;20387;-85
2022/04/24 11:25:56;;;;;;;;;;;;;;;25.33;41.74;94230.09;4897506;29;19928;-84
2022/04/24 11:28:33;;;;;;;;;;;;;;;25.42;40.55;94214.41;4895639;29;19933;-84
2022/04/24 11:31:08;;;;;;;;;;;;;;;25.50;41.88;94213.25;4897575;29;19935;-84
2022/04/24 11:33:36;;;;;;;;;;;;;;;25.61;42.04;94209.69;4879723;29;19935;-84
2022/04/24 11:36:04;;;;;;;;;;;;;;;25.39;39.98;94197.97;4897426;29;20435;-85
2022/04/24 11:38:31;;;;;;;;;;;;;;;25.43;39.97;94204.47;4897590;29;20392;-83
2022/04/24 11:40:57;;;;;;;;;;;;;;;25.50;39.10;94205.19;4897330;29;19934;-84
2022/04/24 11:43:24;;;;;;;;;;;;;;;25.53;39.01;94200.16;4897267;29;20410;-84
2022/04/24 11:51:21;;;;;;;;;;;;;;;25.33;38.26;94195.19;4882523;29;20022;-84
2022/04/24 11:53:48;;;;;;;;;;;;;;;25.36;37.86;94204.63;4897505;29;20030;-84
2022/04/24 11:56:15;;;;;;;;;;;;;;;25.41;39.22;94193.97;4897265;29;19928;-84
2022/04/24 11:58:44;;;;;;;;;;;;;;;25.45;40.71;94194.34;4897109;29;19927;-83
2022/04/24 12:01:13;;;;;;;;;;;;;;;25.40;37.35;94194.22;4897450;29;20018;-84
2022/04/24 12:03:43;;;;;;;;;;;;;;;25.23;36.82;94186.91;4897630;29;19979;-84
2022/04/24 12:06:11;;;;;;;;;;;;;;;25.25;38.12;94187.50;4897275;29;19937;-83
2022/04/24 12:08:42;;;;;;;;;;;;;;;25.24;38.04;94185.88;4879382;29;19978;-84
2022/04/24 12:11:09;;;;;;;;;;;;;;;25.34;37.34;94174.50;4897526;29;19927;-85
2022/04/24 12:13:36;;;;;;;;;;;;;;;25.46;37.86;94174.47;4897110;29;20478;-85
2022/04/24 12:16:03;;;;;;;;;;;;;;;25.35;38.09;94175.31;4897372;29;19970;-84
2022/04/24 12:18:30;;;;;;;;;;;;;;;25.41;38.13;94172.47;4896907;29;19928;-84
2022/04/24 12:20:58;;;;;;;;;;;;;;;25.37;37.41;94173.22;4879054;29;19932;-84
2022/04/24 12:23:26;;;;;;;;;;;;;;;25.40;38.56;94168.16;4896775;29;19928;-84
2022/04/24 12:25:54;;;;;;;;;;;;;;;25.39;38.10;94165.72;4896871;29;19979;-84
2022/04/24 12:28:32;;;;;;;;;;;;;;;25.39;39.24;94160.34;4897348;29;19939;-84
2022/04/24 12:30:59;;;;;;;;;;;;;;;25.48;39.77;94164.31;4897110;29;20001;-84
2022/04/24 12:33:25;;;;;;;;;;;;;;;25.51;39.66;94163.81;4897088;29;20299;-84
2022/04/24 12:35:52;;;;;;;;;;;;;;;25.48;38.58;94153.56;4899333;29;19927;-84
2022/04/24 12:38:21;;;;;;;;;;;;;;;25.36;39.50;94155.47;4900449;29;19935;-84
2022/04/24 12:40:54;;;;;;;;;;;;;;;25.33;39.81;94164.81;4900407;29;19932;-84
2022/04/24 12:43:24;;;;;;;;;;;;;;;25.19;38.85;94155.41;4900126;29;20337;-84
2022/04/24 12:45:51;;;;;;;;;;;;;;;25.13;39.11;94149.09;4900101;29;19935;-84
2022/04/24 12:48:17;;;;;;;;;;;;;;;25.18;38.60;94143.84;4900271;29;20022;-84
2022/04/24 12:50:44;;;;;;;;;;;;;;;25.32;39.36;94150.56;4900158;29;20295;-84
2022/04/24 12:53:11;;;;;;;;;;;;;;;25.40;39.00;94148.56;4900951;29;19927;-84
2022/04/24 12:55:39;;;;;;;;;;;;;;;25.50;39.87;94140.69;4901409;29;20419;-79
2022/04/24 12:58:06;;;;;;;;;;;;;;;25.57;38.82;94136.81;4901361;29;20025;-83